Last 30 Days

Canyon Lodge - 8,343ft

Hourly Data | America/Los_Angeles
as of 7/14/24 4:12 PM PDT
Date & Time Temp (°F) Heat Index (°F) WindChill (°F) RH (%) Dew Pt (°F) Wet Bulb (°F) Wind Dir (°) Wind Spd (mph) Wind Gust (mph) Wind Gst Dir (°) Daily Min Temp (°F) Daily Max Temp (°F) Daily Max Wind (mph)
7/14/24 - 1600 16.0 - - 62 5.3 13.7 WNW | 284 2.6 14.1 N | 0 8.4 109.6 18.8
7/14/24 - 1500 18.2 - 13.3 62 7.3 15.7 NW | 320 3.3 15.8 WNW | 302 13.0 109.6 18.8
7/14/24 - 1400 23.3 - 19.2 61 11.8 20.2 N | 349 3.1 18.1 SSE | 149 17.8 109.6 18.8
7/14/24 - 1300 27.3 - - 60 15.1 23.7 S | 173 2.2 12.3 SSW | 195 19.2 109.6 18.8
7/14/24 - 1200 34.6 - - 59 21.6 30.0 S | 173 2.1 12.2 NW | 304 19.2 109.6 18.8
7/14/24 - 1100 87.9 92.0 - 53 68.7 73.9 SW | 234 1.2 6.0 SW | 229 42.6 109.6 18.8
7/14/24 - 1000 56.2 - - 56 40.5 48.4 SW | 233 4.3 18.8 NNW | 342 42.6 88.8 18.8
7/14/24 - 0900 57.0 - - 56 41.5 49.3 SSW | 202 3.5 18.1 WSW | 248 48.8 88.8 18.1
7/14/24 - 0800 51.8 - - 56 36.8 44.9 S | 184 4.2 15.2 S | 183 48.8 88.8 15.2
7/14/24 - 0700 53.9 - - 56 38.5 46.5 SSW | 197 1.7 8.6 S | 179 49.2 88.8 8.6
7/14/24 - 0600 80.7 81.7 - 52 61.4 67.7 SSW | 204 0.2 3.1 S | 189 66.0 88.8 3.6
7/14/24 - 0500 75.8 - - 51 56.7 63.6 SW | 218 0.1 1.9 WSW | 245 66.0 85.5 3.6
7/14/24 - 0400 76.3 - - 51 57.1 64.0 SW | 218 0.2 2.6 WSW | 245 66.0 80.4 3.6
7/14/24 - 0300 70.2 - - 53 52.1 59.5 SSW | 213 0.4 3.6 SW | 218 66.0 76.8 3.6
7/14/24 - 0200 71.4 - - 54 53.7 60.7 SW | 231 0.3 3.3 WSW | 238 66.8 75.9 3.3
7/14/24 - 0100 76.3 - - 54 58.3 64.9 SSW | 212 0.8 4.2 SSW | 199 -2.4 99.0 23.4
7/14/24 - 0000 92.1 100.5 - 53 72.5 77.4 SW | 228 0.5 3.7 S | 191 -2.4 99.0 23.4
7/13/24 - 2300 92.0 100.4 - 53 72.6 77.4 SW | 233 0.1 2.3 WSW | 238 -2.4 96.0 23.4
7/13/24 - 2200 78.1 - - 55 60.6 66.8 NNW | 339 1.3 7.8 S | 188 -2.4 85.0 23.4
7/13/24 - 2100 48.4 - - 57 33.9 42.0 S | 182 1.0 6.6 ESE | 104 -2.4 70.7 23.4
7/13/24 - 2000 28.0 - - 59 15.4 24.2 SSE | 151 2.0 9.4 ESE | 102 -2.4 58.4 23.4
7/13/24 - 1900 31.8 - - 58 18.6 27.5 SW | 218 2.3 10.8 SSE | 158 -2.4 58.4 23.4
7/13/24 - 1800 47.5 - 44.8 56 32.6 41.0 SW | 216 5.7 23.4 SW | 215 -2.4 58.4 23.4
7/13/24 - 1700 30.3 - 25.2 59 17.6 26.1 SW | 224 4.8 19.6 WSW | 255 -2.4 53.0 19.6
7/13/24 - 1600 3.0 - - 64 -6.4 2.0 SW | 216 2.3 13.0 SE | 143 -2.4 27.2 16.4
7/13/24 - 1500 2.2 - - 64 -7.4 1.2 NNW | 343 2.0 15.9 NNW | 343 -2.4 27.2 16.4
7/13/24 - 1400 4.6 - - 63 -5.2 3.4 NNE | 23 1.6 11.1 NNE | 19 -2.4 27.2 16.4
7/13/24 - 1300 1.2 - - 64 -8.2 0.3 E | 98 2.4 14.7 E | 99 -2.4 27.2 16.4
7/13/24 - 1200 0.1 - - 63 -9.4 -0.7 NNE | 25 2.2 11.7 ENE | 78 -2.4 27.2 16.4
7/13/24 - 1100 6.6 - - 62 -3.6 5.2 SW | 233 2.7 10.0 SW | 225 1.3 27.2 16.4
7/13/24 - 1000 6.8 - -0.1 62 -3.7 5.3 SSW | 213 3.4 14.6 S | 182 2.0 27.2 16.4
7/13/24 - 0900 5.3 - -2.8 61 -5.1 4.0 SW | 216 4.0 16.4 W | 279 2.0 27.2 16.4
7/13/24 - 0800 18.0 - - 59 6.0 15.2 SW | 223 1.0 10.0 SW | 228 2.0 27.2 10.0
7/13/24 - 0700 18.9 - - 57 6.3 16.0 SW | 230 0.5 4.5 S | 189 6.2 23.1 6.0
7/13/24 - 0600 19.2 - - 56 6.3 16.2 SSW | 201 0.2 3.0 S | 184 6.2 21.0 6.0
7/13/24 - 0500 14.9 - - 57 2.5 12.4 WSW | 238 1.1 5.0 WSW | 246 6.2 21.0 6.0
7/13/24 - 0400 15.4 - - 57 2.9 12.8 WSW | 237 1.7 6.0 WSW | 248 6.2 18.1 6.0
7/13/24 - 0300 13.0 - - 58 0.9 10.8 SW | 234 1.1 5.6 N | 7 6.2 18.1 5.6
7/13/24 - 0200 10.6 - - 59 -0.9 8.6 WSW | 257 1.2 5.6 NW | 311 6.2 16.1 5.6
7/13/24 - 0100 7.4 - - 60 -3.6 5.8 WSW | 250 1.8 5.7 WSW | 252 -16.1 36.1 23.2
7/13/24 - 0000 13.4 - - 60 2.0 11.2 WSW | 250 1.0 4.8 WNW | 294 -16.1 36.1 23.2
7/12/24 - 2300 27.9 - - 59 15.6 24.2 SW | 231 1.2 5.7 SSW | 197 -16.1 36.1 23.2
7/12/24 - 2200 26.4 - - 60 14.2 22.9 SSE | 165 0.4 5.3 SE | 141 -16.1 32.0 23.2
7/12/24 - 2100 12.8 - - 61 2.1 10.8 SSW | 193 2.6 14.9 SSW | 193 -16.1 30.1 23.2
7/12/24 - 2000 -5.4 - - 64 -14.6 -5.7 SW | 216 2.3 10.6 S | 187 -16.1 27.9 23.2
7/12/24 - 1900 -2.0 - - 64 -11.3 -2.6 SW | 234 1.9 10.8 SW | 227 -16.1 27.9 23.2
7/12/24 - 1800 -3.9 - - 64 -12.9 -4.3 WSW | 245 1.5 9.7 W | 266 -16.1 27.9 23.2
7/12/24 - 1700 -4.0 - - 64 -13.0 -4.4 SSW | 213 1.6 9.0 SSW | 213 -16.1 27.9 23.2
7/12/24 - 1600 -2.4 - -9.7 63 -11.8 -3.0 SW | 220 3.1 17.6 SSW | 198 -16.1 27.9 23.2
7/12/24 - 1500 -9.0 - - 65 -17.6 -8.9 SSW | 201 3.0 23.2 S | 175 -16.1 27.9 23.2
7/12/24 - 1400 -13.6 - - 66 -21.6 -13.0 SE | 146 1.7 8.6 S | 183 -16.1 27.9 11.0
7/12/24 - 1300 -14.5 - - 67 -22.4 -13.8 E | 94 1.6 9.8 N | 3 -16.1 27.9 11.0
7/12/24 - 1200 -13.4 - - 66 -21.4 -12.8 ESE | 102 1.6 10.3 ESE | 106 -15.5 27.9 11.0
7/12/24 - 1100 -9.4 - - 65 -17.8 -9.2 NE | 35 1.5 11.0 N | 0 -12.6 27.9 11.0
7/12/24 - 1000 -6.9 - - 64 -15.7 -7.0 NE | 35 0.7 6.7 NNE | 30 -10.2 27.9 6.7
7/12/24 - 0900 -3.5 - - 63 -12.9 -4.0 NNW | 341 0.9 5.4 NW | 311 -6.4 27.9 6.4
7/12/24 - 0800 13.5 - - 60 2.2 11.3 NNW | 336 0.7 4.3 NNW | 337 -5.0 27.9 6.4
7/12/24 - 0700 13.8 - - 57 1.5 11.4 WSW | 248 1.4 6.3 WSW | 244 0.4 23.3 6.4
7/12/24 - 0600 6.9 - - 57 -5.0 5.2 WSW | 240 1.3 6.4 WSW | 256 0.4 12.7 6.4
7/12/24 - 0500 5.8 - - 58 -5.9 4.2 SW | 225 1.3 4.9 SW | 218 0.4 12.7 5.5
7/12/24 - 0400 6.5 - - 58 -5.3 4.8 WSW | 237 1.3 5.2 SW | 220 0.4 12.7 5.5
7/12/24 - 0300 6.0 - - 59 -5.3 4.5 SW | 226 1.7 5.4 SW | 215 0.4 12.7 5.5
7/12/24 - 0200 5.9 - - 59 -5.4 4.4 SW | 234 1.1 5.5 SW | 217 2.8 9.5 5.5
7/12/24 - 0100 4.8 - - 59 -6.4 3.4 WNW | 299 0.2 4.0 NW | 322 -23.0 15.4 22.3
7/12/24 - 0000 2.3 - - 60 -8.3 1.1 S | 173 1.9 7.3 S | 169 -23.0 15.4 22.3
7/11/24 - 2300 8.6 - - 61 -2.2 6.9 SSE | 166 1.4 8.3 SE | 146 -23.0 15.4 22.3
7/11/24 - 2200 9.5 - - 61 -1.1 7.8 S | 179 1.2 7.2 SSW | 196 -23.0 15.4 22.3
7/11/24 - 2100 8.1 - - 63 -2.0 6.6 SSW | 201 2.7 11.6 SSW | 209 -23.0 13.6 22.3
7/11/24 - 2000 3.3 - -5.3 63 -6.3 2.3 SW | 228 4.2 16.5 WSW | 244 -23.0 9.1 22.3
7/11/24 - 1900 -10.6 - -19.2 65 -19.2 -10.4 SSW | 210 3.1 20.2 S | 175 -23.0 9.1 22.3
7/11/24 - 1800 -17.2 - - 66 -25.2 -16.3 SSW | 206 2.8 15.0 S | 172 -23.0 9.1 22.3
7/11/24 - 1700 -18.5 - -28.4 66 -26.3 -17.5 SSW | 193 3.2 14.9 W | 262 -23.0 9.1 22.3
7/11/24 - 1600 -18.2 - -29.5 67 -26.0 -17.2 SSE | 167 3.8 16.8 ESE | 112 -23.0 9.1 22.3
7/11/24 - 1500 -20.4 - -30.5 67 -27.9 -19.2 S | 170 3.2 22.3 S | 169 -23.0 9.1 22.3
7/11/24 - 1400 -22.0 - -32.8 67 -29.4 -20.6 W | 262 3.4 18.4 SSW | 198 -23.0 9.1 18.4
7/11/24 - 1300 -21.9 - -32.6 67 -29.3 -20.5 W | 274 3.3 16.6 SSE | 147 -23.0 9.1 16.6
7/11/24 - 1200 -21.3 - - 67 -28.8 -20.0 SW | 222 2.6 12.5 SSW | 199 -22.6 9.1 15.0
7/11/24 - 1100 -20.6 - - 66 -28.3 -19.4 S | 187 2.3 11.8 S | 175 -22.6 9.1 15.0
7/11/24 - 1000 -18.2 - - 65 -26.3 -17.2 N | 10 1.8 10.3 E | 98 -22.6 9.1 15.0
7/11/24 - 0900 -15.5 - - 64 -24.2 -14.8 NNE | 25 0.3 3.1 N | 10 -22.6 9.1 15.0
7/11/24 - 0800 5.2 - - 60 -5.6 3.8 N | 358 0.0 0.6 N | 351 -22.6 9.1 15.0
7/11/24 - 0700 -3.3 - - 57 -14.9 -4.1 SSW | 207 0.3 5.3 SSW | 193 -22.6 3.8 15.0
7/11/24 - 0600 -14.1 - - 58 -24.7 -13.9 SW | 233 1.8 5.4 WSW | 252 -22.6 -12.1 15.0
7/11/24 - 0500 -16.7 - - 59 -26.8 -16.2 SW | 224 1.0 6.3 SSW | 198 -22.6 -13.8 15.0
7/11/24 - 0400 -18.2 - - 60 -27.9 -17.5 SSW | 198 1.3 7.4 SSW | 198 -22.6 -14.1 15.0
7/11/24 - 0300 -18.9 - - 60 -28.5 -18.2 S | 179 1.1 8.2 S | 184 -22.6 -15.5 15.0
7/11/24 - 0200 -21.6 - - 62 -30.6 -20.6 SSW | 210 2.4 15.0 SSW | 206 -22.6 -19.8 15.0
7/11/24 - 0100 -22.0 - - 62 -31.0 -20.9 SW | 219 2.9 14.6 W | 276 -28.7 26.8 30.0
7/11/24 - 0000 -19.1 - -33.9 62 -28.0 -18.2 WSW | 239 5.5 15.8 W | 271 -28.7 26.8 30.0
7/10/24 - 2300 -15.4 - -28.1 62 -24.5 -14.8 WSW | 239 4.7 15.4 WSW | 245 -28.7 26.8 30.0
7/10/24 - 2200 -16.0 - -27.6 62 -25.0 -15.4 WSW | 242 4.1 15.5 W | 274 -28.7 26.8 30.0
7/10/24 - 2100 -18.6 - -31.8 63 -27.4 -17.7 SW | 228 4.7 17.7 S | 180 -28.7 26.8 30.0
7/10/24 - 2000 -17.9 - -32.2 64 -26.5 -17.1 SW | 232 5.4 17.8 WSW | 254 -28.7 26.8 30.0
7/10/24 - 1900 -18.0 - -31.8 65 -26.3 -17.1 SW | 223 5.1 18.8 WSW | 245 -28.7 26.8 30.0
7/10/24 - 1800 -19.4 - -33.1 66 -27.4 -18.4 SSW | 203 4.9 18.0 S | 179 -28.7 26.8 30.0
7/10/24 - 1700 -20.6 - -35.2 66 -28.4 -19.4 SSW | 208 5.3 25.7 SSE | 148 -28.7 26.8 30.0
7/10/24 - 1600 -21.9 - -37.4 67 -29.5 -20.5 SSW | 201 5.6 24.1 S | 170 -28.7 26.8 30.0
7/10/24 - 1500 -23.2 - -40.6 67 -30.6 -21.7 SSW | 209 6.7 25.5 SSW | 192 -28.7 26.8 30.0
7/10/24 - 1400 -23.9 - -40.5 67 -31.3 -22.3 SSW | 211 6.1 30.0 S | 183 -28.7 26.8 30.0
7/10/24 - 1300 -24.7 - -36.5 67 -32.0 -23.1 S | 181 3.6 17.9 SSE | 156 -28.7 26.8 17.9
7/10/24 - 1200 -26.9 - -40.2 67 -34.3 -25.1 SSW | 207 4.1 17.8 ESE | 119 -28.7 26.8 17.8
7/10/24 - 1100 -20.4 - - 66 -28.3 -19.2 S | 184 2.4 14.7 WSW | 247 -28.7 26.8 14.7
7/10/24 - 1000 -7.9 - - 64 -16.9 -7.9 ENE | 68 0.6 5.3 N | 0 -12.1 26.8 6.4
7/10/24 - 0900 -2.5 - - 62 -12.1 -3.1 NE | 47 0.6 4.2 NNE | 22 -7.1 26.8 6.4
7/10/24 - 0800 16.1 - - 60 4.6 13.6 N | 11 0.1 3.2 N | 3 -6.6 26.8 6.4
7/10/24 - 0700 16.4 - - 56 3.4 13.6 SSW | 192 0.0 3.3 SSW | 207 -6.6 21.5 6.4
7/10/24 - 0600 8.6 - - 56 -4.0 6.6 SW | 227 0.8 5.2 W | 266 -6.6 11.9 6.4
7/10/24 - 0500 10.0 - - 55 -2.9 7.9 E | 99 0.0 2.3 S | 181 -6.6 11.9 6.4
7/10/24 - 0400 5.9 - - 56 -6.5 4.2 SSW | 204 0.1 3.4 SSW | 213 -6.6 9.8 6.4
7/10/24 - 0300 -1.7 - - 57 -13.3 -2.6 SW | 235 0.6 4.5 W | 265 -6.6 1.6 6.4
7/10/24 - 0200 -1.9 - - 58 -13.2 -2.8 WSW | 243 1.5 6.4 WSW | 248 -6.0 1.6 6.4
7/10/24 - 0100 -5.1 - - 60 -15.6 -5.6 W | 261 0.8 10.2 SE | 143 -30.0 13.3 20.7
7/10/24 - 0000 -7.3 - - 61 -17.1 -7.5 S | 187 2.9 13.9 SSE | 163 -30.0 13.3 20.7
7/9/24 - 2300 1.3 - - 61 -8.9 0.3 S | 186 2.4 16.2 S | 171 -30.0 13.3 20.7
7/9/24 - 2200 -1.1 - -12.1 62 -11.1 -1.8 SW | 221 5.2 18.6 SSW | 195 -30.0 13.3 20.7
7/9/24 - 2100 -1.4 - -11.9 62 -11.3 -2.1 SSW | 206 4.8 18.1 WSW | 240 -30.0 13.3 20.7
7/9/24 - 2000 -0.7 - -14.2 63 -10.4 -1.4 SW | 219 7.3 19.7 SSW | 205 -30.0 13.3 20.7
7/9/24 - 1900 -9.0 - -23.0 64 -18.0 -9.0 SW | 219 6.3 19.5 SSW | 208 -30.0 13.3 20.7
7/9/24 - 1800 -11.9 - -27.1 65 -20.3 -11.5 SW | 215 6.8 18.6 S | 187 -30.0 13.3 20.7
7/9/24 - 1700 -12.1 - -26.4 66 -20.2 -11.7 SSW | 205 6.1 17.7 W | 261 -30.0 13.3 20.7
7/9/24 - 1600 -12.8 - -27.9 66 -20.8 -12.3 SSW | 200 6.5 20.2 S | 176 -30.0 13.3 20.7
7/9/24 - 1500 -17.0 - -29.9 67 -24.6 -16.0 SSW | 204 4.7 17.8 SSW | 194 -30.0 13.3 20.7
7/9/24 - 1400 -23.2 - -37.5 68 -30.5 -21.6 SSW | 202 4.9 20.7 S | 175 -30.0 13.3 20.7
7/9/24 - 1300 -24.4 - -36.1 67 -31.8 -22.8 SSW | 203 3.6 14.8 S | 174 -30.0 13.3 14.8
7/9/24 - 1200 -19.4 - - 67 -27.1 -18.3 SSE | 149 2.2 11.6 SSW | 212 -21.0 13.3 11.6
7/9/24 - 1100 -17.2 - - 65 -25.4 -16.4 N | 11 2.0 9.0 NNE | 14 -20.7 13.3 9.2
7/9/24 - 1000 -12.0 - - 64 -20.8 -11.7 NE | 37 1.1 6.7 N | 0 -20.7 13.3 9.2
7/9/24 - 0900 -11.4 - - 63 -20.6 -11.2 N | 355 1.9 5.0 NNW | 343 -20.7 13.3 9.2
7/9/24 - 0800 4.6 - - 59 -6.6 3.2 N | 354 0.6 3.8 NNW | 333 -20.7 13.3 9.2
7/9/24 - 0700 -2.2 - - 56 -14.1 -3.1 W | 277 1.2 6.8 W | 276 -20.7 4.6 9.2
7/9/24 - 0600 -0.2 - -7.3 56 -12.3 -1.3 W | 275 3.1 9.2 WNW | 287 -20.7 4.6 9.2
7/9/24 - 0500 -3.5 - - 56 -15.3 -4.3 WNW | 282 2.0 7.6 W | 267 -20.7 3.3 9.2
7/9/24 - 0400 -10.6 - - 57 -21.7 -10.8 W | 263 0.9 6.1 WSW | 256 -20.7 -3.0 9.2
7/9/24 - 0300 -13.0 - - 56 -24.1 -12.9 SSW | 204 0.2 3.4 SSW | 211 -20.7 -10.6 9.2
7/9/24 - 0200 -17.7 - - 60 -27.4 -17.1 SSW | 194 2.0 9.2 S | 174 -20.7 -14.7 9.2
7/9/24 - 0100 -15.4 - -25.1 61 -24.8 -14.9 S | 178 3.3 10.4 SW | 218 -20.4 30.9 26.8
7/9/24 - 0000 -8.7 - -16.9 61 -18.5 -8.8 S | 175 3.1 10.0 S | 180 -18.6 30.9 26.8
7/8/24 - 2300 -2.3 - - 61 -12.4 -2.9 S | 175 2.4 12.6 S | 188 -18.6 30.9 26.8
7/8/24 - 2200 -3.3 - - 62 -13.2 -3.8 SSW | 202 2.9 12.1 WSW | 248 -18.6 30.9 26.8
7/8/24 - 2100 -1.6 - -14.4 62 -11.4 -2.3 WSW | 242 6.5 17.6 WSW | 253 -18.6 30.9 26.8
7/8/24 - 2000 -0.5 - -10.6 63 -10.0 -1.2 SW | 236 4.7 17.3 W | 262 -18.6 30.9 26.8
7/8/24 - 1900 0.3 - -9.1 64 -9.0 -0.5 SW | 217 4.3 20.5 SSW | 192 -18.6 30.9 26.8
7/8/24 - 1800 -0.7 - -10.9 65 -9.5 -1.3 SSW | 208 4.7 21.2 S | 169 -18.6 30.9 26.8
7/8/24 - 1700 -4.2 - -13.9 66 -12.6 -4.5 SSW | 200 4.1 18.3 S | 187 -18.6 30.9 26.8
7/8/24 - 1600 -9.6 - -22.2 67 -17.5 -9.3 SSW | 197 5.3 26.8 S | 177 -18.6 30.9 26.8
7/8/24 - 1500 -12.2 - -24.6 67 -20.0 -11.7 S | 189 4.9 22.4 ESE | 104 -18.6 30.9 24.8
7/8/24 - 1400 -14.1 - -26.2 67 -21.8 -13.4 SW | 214 4.6 24.8 S | 188 -18.6 30.9 24.8
7/8/24 - 1300 -14.6 - -25.2 68 -22.2 -13.8 SSW | 211 3.7 15.7 SSW | 211 -18.6 30.9 15.7
7/8/24 - 1200 -7.6 - - 67 -15.7 -7.5 ENE | 62 1.5 9.5 SSW | 208 -15.5 30.9 9.5
7/8/24 - 1100 -2.8 - - 65 -11.7 -3.3 NE | 51 2.0 9.2 NNE | 24 -7.9 30.9 9.2
7/8/24 - 1000 -2.6 - - 64 -11.8 -3.1 N | 9 1.7 7.8 NNE | 12 -7.9 30.9 8.0
7/8/24 - 0900 -1.6 - - 63 -11.1 -2.2 NNW | 339 1.9 8.0 N | 352 -7.9 30.9 8.0
7/8/24 - 0800 21.0 - - 60 9.4 18.0 N | 2 0.5 3.5 N | 352 5.2 30.9 3.9
7/8/24 - 0700 23.2 - - 57 10.1 19.8 S | 190 0.0 2.0 SE | 144 15.2 29.0 3.9
7/8/24 - 0600 18.3 - - 56 5.2 15.3 SW | 224 0.1 2.4 SSW | 204 15.2 24.3 3.9
7/8/24 - 0500 21.1 - - 56 8.0 17.9 SW | 215 0.4 3.9 SSW | 200 16.5 24.3 3.9
7/8/24 - 0400 22.0 - - 57 8.9 18.7 SSW | 203 0.3 3.0 SSW | 206 16.5 24.3 3.5
7/8/24 - 0300 21.1 - - 57 8.2 18.0 SSW | 206 0.2 3.5 SSW | 204 16.5 23.9 3.5
7/8/24 - 0200 18.9 - - 57 6.3 16.0 W | 278 0.1 3.0 WNW | 295 16.5 20.6 3.0
7/8/24 - 0100 20.6 - - 58 8.2 17.6 WSW | 237 0.1 2.6 WSW | 244 -17.4 32.7 21.2
7/8/24 - 0000 23.7 - - 59 11.3 20.4 SW | 232 0.3 4.2 WNW | 283 -17.4 32.7 21.2
7/7/24 - 2300 18.9 - - 60 7.4 16.2 NNW | 337 0.8 7.4 SW | 230 -17.4 32.7 21.2
7/7/24 - 2200 12.8 - 5.3 62 2.2 10.8 S | 185 4.4 19.1 SSW | 194 -17.4 32.7 21.2
7/7/24 - 2100 10.4 - 2.5 63 0.2 8.6 SSW | 205 4.4 19.1 SSW | 200 -17.4 32.7 21.2
7/7/24 - 2000 10.8 - 3.7 64 1.0 9.1 SSW | 205 3.9 15.3 SSW | 208 -17.4 32.7 21.2
7/7/24 - 1900 6.2 - -2.9 65 -3.0 5.0 SSW | 206 4.8 17.1 S | 182 -17.4 32.7 21.2
7/7/24 - 1800 -4.2 - -15.7 66 -12.5 -4.4 SSW | 203 5.2 17.5 S | 190 -17.4 32.7 21.2
7/7/24 - 1700 -8.3 - -21.6 67 -16.2 -8.1 SSW | 202 5.9 19.5 SSW | 204 -17.4 32.7 21.2
7/7/24 - 1600 -10.9 - -23.1 68 -18.5 -10.5 SSW | 202 4.9 21.2 S | 185 -17.4 32.7 21.2
7/7/24 - 1500 -12.6 - - 68 -20.2 -12.0 SW | 232 3.0 13.3 S | 188 -17.4 32.7 14.5
7/7/24 - 1400 -13.8 - - 68 -21.3 -13.1 SSW | 208 3.0 14.1 SSW | 199 -17.4 32.7 14.5
7/7/24 - 1300 -11.4 - -21.1 67 -19.2 -11.0 SSW | 212 3.6 14.5 S | 179 -14.6 32.7 14.5
7/7/24 - 1200 -10.2 - - 67 -18.3 -9.9 SSW | 207 2.7 10.5 W | 276 -12.4 32.7 12.6
7/7/24 - 1100 -7.8 - - 66 -16.2 -7.8 WNW | 292 2.6 12.6 S | 187 -11.1 32.7 12.6
7/7/24 - 1000 -8.8 - - 65 -17.3 -8.7 WSW | 242 1.4 7.6 SSW | 198 -11.1 32.7 7.6
7/7/24 - 0900 -3.9 - - 64 -12.9 -4.3 NNE | 12 0.7 3.8 NNE | 16 -7.4 32.7 5.2
7/7/24 - 0800 26.8 - - 61 15.2 23.3 NNE | 15 0.1 1.4 N | 352 2.7 32.7 5.2
7/7/24 - 0700 28.3 - - 57 15.0 24.3 S | 183 0.0 1.6 SSE | 152 2.7 30.8 5.2
7/7/24 - 0600 22.4 - - 56 9.0 19.0 SSW | 207 0.1 2.7 SSW | 204 2.7 26.0 5.2
7/7/24 - 0500 14.4 - - 57 1.9 11.9 SW | 226 0.6 5.1 WSW | 247 2.7 20.6 5.2
7/7/24 - 0400 5.5 - - 60 -5.6 4.0 WSW | 257 2.0 5.2 WSW | 245 2.7 13.8 5.2
7/7/24 - 0300 7.3 - - 59 -3.8 5.7 W | 262 2.0 4.7 WSW | 255 4.1 13.8 5.0
7/7/24 - 0200 8.9 - - 60 -2.3 7.2 WSW | 258 2.2 5.0 WSW | 257 6.4 13.8 5.0
7/7/24 - 0100 14.1 - - 59 2.4 11.8 W | 265 1.4 5.3 WSW | 243 -22.3 21.4 21.2
7/7/24 - 0000 15.9 - - 60 4.4 13.5 W | 274 1.6 5.8 W | 278 -22.3 21.4 21.2
7/6/24 - 2300 15.9 - - 60 4.6 13.5 SW | 228 0.9 4.7 SSW | 198 -22.3 21.4 21.2
7/6/24 - 2200 13.4 - - 62 2.8 11.3 SSW | 207 2.2 14.2 S | 170 -22.3 16.3 21.2
7/6/24 - 2100 8.6 - 1.1 63 -1.4 7.0 SSW | 196 4.0 17.1 SSW | 196 -22.3 15.7 21.2
7/6/24 - 2000 4.1 - -5.1 64 -5.4 3.0 SSW | 203 4.6 17.3 SW | 229 -22.3 15.7 21.2
7/6/24 - 1900 -0.4 - -10.8 65 -9.3 -1.0 SSW | 200 4.9 15.7 S | 180 -22.3 15.7 21.2
7/6/24 - 1800 -3.3 - -16.0 66 -11.8 -3.7 SSW | 195 6.1 20.3 S | 188 -22.3 15.7 21.2
7/6/24 - 1700 -7.9 - -21.7 67 -15.9 -7.8 SSW | 193 6.3 19.2 S | 169 -22.3 15.7 21.2
7/6/24 - 1600 -13.5 - -26.8 68 -21.0 -12.8 SSW | 202 5.3 21.2 S | 187 -22.3 15.7 21.2
7/6/24 - 1500 -21.0 - - 69 -28.0 -19.6 SSW | 197 2.4 13.2 SSW | 204 -22.3 15.7 13.2
7/6/24 - 1400 -21.2 - - 68 -28.5 -19.9 SW | 231 2.3 10.3 W | 271 -22.2 15.7 10.3
7/6/24 - 1300 -18.8 - - 67 -26.3 -17.6 NNE | 27 1.8 8.0 NNE | 32 -20.6 15.7 8.0
7/6/24 - 1200 -17.8 - - 66 -25.7 -16.9 ENE | 62 1.4 7.7 SE | 146 -20.5 15.7 7.7
7/6/24 - 1100 -16.6 - - 65 -24.9 -15.8 SE | 135 1.5 7.5 SE | 137 -20.5 15.7 7.5
7/6/24 - 1000 -16.4 - - 64 -25.1 -15.7 NNE | 18 1.5 6.9 N | 353 -20.5 15.7 6.9
7/6/24 - 0900 -15.1 - - 63 -24.0 -14.5 N | 11 0.5 5.4 NNE | 15 -20.1 15.7 5.4
7/6/24 - 0800 8.0 - - 60 -3.1 6.3 NNE | 22 0.0 0.9 NNE | 28 -14.4 15.7 4.7
7/6/24 - 0700 6.3 - - 56 -6.1 4.6 SSW | 209 0.0 2.6 S | 173 -7.2 13.6 4.7
7/6/24 - 0600 -3.2 - - 55 -15.3 -4.0 WSW | 243 0.4 3.9 WSW | 252 -7.2 0.4 4.7
7/6/24 - 0500 -5.9 - - 56 -17.6 -6.5 WSW | 251 1.6 4.7 WSW | 248 -7.2 -3.2 4.7
7/6/24 - 0400 -5.7 - - 56 -17.3 -6.2 WSW | 252 0.7 4.3 WSW | 252 -7.2 -3.2 4.6
7/6/24 - 0300 -5.6 - - 56 -17.2 -6.2 WSW | 258 1.2 4.6 WSW | 245 -6.6 -3.2 4.6
7/6/24 - 0200 -4.8 - - 57 -16.4 -5.5 WSW | 242 0.8 4.6 S | 181 -6.4 -3.2 4.6
7/6/24 - 0100 -4.7 - - 57 -16.0 -5.3 WSW | 251 0.6 4.7 WNW | 282 -19.7 26.9 18.6
7/6/24 - 0000 -1.9 - - 58 -13.2 -2.8 WSW | 238 0.5 4.6 S | 185 -19.7 26.9 18.6
7/5/24 - 2300 6.5 - - 59 -4.9 4.9 WSW | 255 2.0 6.1 W | 276 -19.7 26.9 18.6
7/5/24 - 2200 13.9 - - 60 2.5 11.7 W | 265 1.9 6.7 W | 279 -19.7 26.9 18.6
7/5/24 - 2100 20.7 - - 61 9.3 17.9 WSW | 250 1.0 5.7 SSW | 196 -19.7 26.9 18.6
7/5/24 - 2000 10.6 - 3.7 63 0.6 8.8 SSW | 193 3.8 17.8 S | 174 -19.7 17.1 18.6
7/5/24 - 1900 6.8 - -2.7 64 -2.7 5.4 S | 184 5.1 18.0 S | 183 -19.7 17.1 18.6
7/5/24 - 1800 6.9 - -3.0 65 -2.2 5.6 SSW | 192 5.5 18.6 SSW | 193 -19.7 17.1 18.6
7/5/24 - 1700 1.0 - -10.1 66 -7.6 0.3 SSW | 203 5.6 16.9 S | 188 -19.7 17.1 16.9
7/5/24 - 1600 -10.6 - -19.2 67 -18.5 -10.3 SSW | 204 3.1 12.9 S | 184 -19.7 17.1 12.9
7/5/24 - 1500 -17.2 - - 67 -24.9 -16.3 N | 5 2.2 9.7 NNW | 348 -19.7 17.1 11.9
7/5/24 - 1400 -16.4 - -25.7 67 -24.2 -15.5 NE | 37 3.1 11.9 NNE | 16 -19.7 17.1 11.9
7/5/24 - 1300 -15.8 - - 66 -23.8 -15.1 NNE | 20 2.5 9.8 ESE | 112 -19.7 17.1 9.8
7/5/24 - 1200 -15.1 - - 65 -23.4 -14.4 NE | 49 1.8 8.3 N | 6 -19.7 17.1 9.1
7/5/24 - 1100 -14.9 - - 64 -23.5 -14.3 NE | 55 1.5 9.1 NE | 34 -19.7 17.1 9.1
7/5/24 - 1000 -16.8 - - 63 -25.6 -16.1 NNE | 22 1.1 6.9 NNE | 23 -19.7 17.1 6.9
7/5/24 - 0900 -16.8 - - 62 -25.9 -16.1 NNE | 30 0.6 5.4 NNE | 17 -19.7 17.1 5.4
7/5/24 - 0800 7.9 - - 59 -3.4 6.2 NNE | 13 0.0 1.6 NE | 40 -14.2 17.1 4.9
7/5/24 - 0700 5.8 - - 55 -6.8 4.1 WNW | 295 0.2 3.5 WSW | 255 -7.1 15.3 4.9
7/5/24 - 0600 -4.4 - - 55 -16.5 -5.2 WSW | 241 0.8 4.6 WSW | 246 -7.1 14.0 4.9
7/5/24 - 0500 -0.8 - - 55 -13.1 -1.9 SW | 236 0.8 4.9 SW | 219 -3.9 14.0 4.9
7/5/24 - 0400 4.9 - - 55 -7.8 3.3 WSW | 250 0.4 4.5 S | 188 0.3 14.0 4.7
7/5/24 - 0300 10.0 - - 56 -2.7 7.9 WSW | 238 1.4 4.7 SW | 215 4.3 14.0 4.7
7/5/24 - 0200 8.3 - - 56 -4.3 6.4 SW | 215 0.7 4.2 S | 177 4.3 12.5 4.2
7/5/24 - 0100 5.5 - - 56 -6.7 3.9 WSW | 250 0.4 6.3 WNW | 288 -15.2 63.4 22.9
7/5/24 - 0000 7.8 - - 57 -4.2 6.0 WSW | 244 1.0 5.1 WSW | 244 -15.2 63.4 22.9
7/4/24 - 2300 21.4 - - 58 8.8 18.3 W | 262 2.2 5.4 WSW | 244 -15.2 63.4 22.9
7/4/24 - 2200 22.1 - - 60 10.2 19.1 W | 263 1.5 8.2 SW | 218 -15.2 63.4 22.9
7/4/24 - 2100 18.8 - - 61 7.6 16.2 SW | 224 1.2 8.3 SE | 146 -15.2 63.4 22.9
7/4/24 - 2000 16.5 - 10.2 62 5.8 14.1 SSW | 200 4.0 14.6 S | 178 -15.2 63.4 22.9
7/4/24 - 1900 9.2 - 0.3 63 -0.8 7.5 SSW | 196 5.0 19.3 S | 177 -15.2 63.4 22.9
7/4/24 - 1800 0.1 - -11.8 65 -9.0 -0.6 SSW | 196 6.1 20.0 S | 187 -15.2 63.4 22.9
7/4/24 - 1700 -1.0 - -14.2 65 -9.8 -1.6 SSW | 193 6.9 22.9 S | 184 -15.2 63.4 22.9
7/4/24 - 1600 -6.1 - -18.8 66 -14.5 -6.2 SSW | 202 5.8 21.2 S | 175 -15.2 63.4 21.2
7/4/24 - 1500 -10.2 - -21.3 66 -18.4 -9.9 S | 181 4.3 19.4 S | 185 -15.2 63.4 19.4
7/4/24 - 1400 -7.9 - -17.4 66 -16.2 -7.8 SSW | 192 3.7 16.2 WSW | 252 -14.4 63.4 16.2
7/4/24 - 1300 -10.5 - -19.1 66 -18.7 -10.2 W | 270 3.1 13.9 NW | 319 -14.4 63.4 13.9
7/4/24 - 1200 -4.9 - -12.9 65 -13.6 -5.1 NW | 307 3.2 13.2 NNW | 347 -9.0 63.4 13.2
7/4/24 - 1100 0.3 - - 64 -9.1 -0.4 E | 93 1.4 7.6 SSE | 158 -6.5 63.4 7.6
7/4/24 - 1000 -0.5 - - 62 -10.3 -1.3 NE | 55 0.7 4.0 ESE | 109 -6.5 63.4 7.2
7/4/24 - 0900 -1.4 - - 61 -11.6 -2.1 NNE | 12 0.7 4.2 NNW | 341 -6.5 63.4 7.2
7/4/24 - 0800 33.1 - - 59 20.1 28.6 N | 349 0.9 4.3 NNW | 328 5.7 63.4 7.2
7/4/24 - 0700 51.1 - - 55 35.5 44.0 W | 266 0.2 4.8 W | 265 43.6 63.4 7.2
7/4/24 - 0600 52.8 - - 54 36.6 45.2 WSW | 253 0.3 3.2 W | 263 43.6 63.4 7.2
7/4/24 - 0500 52.6 - - 54 36.6 45.2 W | 261 0.2 3.0 W | 273 43.6 63.4 7.2
7/4/24 - 0400 51.1 - - 55 35.3 43.9 WSW | 252 0.2 5.5 WNW | 282 43.6 63.4 7.2
7/4/24 - 0300 51.2 - - 56 35.8 44.1 W | 265 0.9 7.2 W | 274 43.6 63.4 7.2
7/4/24 - 0200 61.2 - - 55 44.7 52.5 W | 271 0.0 2.0 W | 262 57.3 63.4 2.0
7/4/24 - 0100 53.4 - - 56 38.0 46.1 W | 265 0.3 5.0 WNW | 283 -11.1 57.3 24.3
7/4/24 - 0000 41.4 - - 57 27.3 35.8 W | 261 1.5 6.3 W | 274 -11.1 48.7 24.3
7/3/24 - 2300 27.1 - - 57 14.0 23.3 WSW | 256 1.2 5.5 WSW | 246 -11.1 42.3 24.3
7/3/24 - 2200 38.2 - - 59 25.0 33.3 WSW | 255 0.8 8.4 NW | 314 -11.1 42.3 24.3
7/3/24 - 2100 29.4 - - 60 17.5 25.7 SW | 236 1.3 14.8 SSW | 208 -11.1 33.9 24.3
7/3/24 - 2000 25.5 - 18.9 62 14.2 22.2 S | 187 5.6 17.8 SSE | 151 -11.1 28.2 24.3
7/3/24 - 1900 22.2 - 14.8 63 11.4 19.3 SSW | 200 5.7 17.7 SSW | 213 -11.1 23.8 24.3
7/3/24 - 1800 17.3 - 8.5 64 7.1 14.9 SSW | 193 6.2 19.2 SSW | 192 -11.1 23.8 24.3
7/3/24 - 1700 9.8 - -0.0 65 0.2 8.2 SSW | 196 5.8 21.0 S | 180 -11.1 23.8 24.3
7/3/24 - 1600 1.9 - -11.0 65 -7.2 1.0 S | 190 7.2 24.3 S | 175 -11.1 23.8 24.3
7/3/24 - 1500 -0.8 - -14.1 65 -9.7 -1.4 SSW | 192 7.1 20.0 S | 183 -11.1 23.8 21.5
7/3/24 - 1400 -2.0 - -15.6 65 -11.0 -2.5 SSW | 194 7.1 20.3 SSW | 193 -11.1 23.8 21.5
7/3/24 - 1300 -6.1 - -21.1 65 -14.9 -6.3 S | 186 7.6 21.5 S | 176 -11.1 23.8 21.5
7/3/24 - 1200 -7.0 - -20.2 64 -15.9 -7.1 S | 188 6.0 19.2 S | 170 -11.1 23.8 19.2
7/3/24 - 1100 -7.0 - -18.9 64 -16.1 -7.1 SSE | 167 5.1 15.9 S | 180 -11.1 23.8 15.9
7/3/24 - 1000 -5.3 - - 62 -15.0 -5.7 NE | 48 1.8 15.5 SSE | 148 -11.1 23.8 15.5
7/3/24 - 0900 -8.7 - - 60 -18.7 -8.8 NE | 41 0.3 3.2 NE | 40 -11.1 23.8 5.7
7/3/24 - 0800 13.1 - - 58 0.9 10.8 NNE | 20 0.1 2.0 NNE | 31 -9.5 23.8 5.7
7/3/24 - 0700 17.8 - - 54 3.8 14.8 SSW | 204 0.2 3.2 SSW | 192 7.0 21.8 5.7
7/3/24 - 0600 10.0 - - 53 -3.9 7.8 WSW | 240 1.7 5.7 SW | 219 7.0 20.2 5.7
7/3/24 - 0500 8.6 - - 53 -5.0 6.6 WSW | 243 1.3 5.6 WSW | 253 7.0 20.2 5.6
7/3/24 - 0400 8.9 - - 53 -4.7 6.8 WSW | 244 1.3 5.1 WSW | 249 7.0 20.2 5.5
7/3/24 - 0300 11.1 - - 54 -2.5 8.8 SSW | 211 1.1 5.5 S | 187 8.6 20.2 5.5
7/3/24 - 0200 16.5 - - 54 2.6 13.6 SW | 224 0.6 4.8 WSW | 257 10.0 20.2 4.8
7/3/24 - 0100 12.2 - - 55 -1.1 9.8 SSW | 199 0.3 3.5 S | 172 -1.3 39.4 21.0
7/3/24 - 0000 7.7 - - 56 -4.7 5.9 W | 264 1.1 4.5 WSW | 242 -1.3 39.4 21.0
7/2/24 - 2300 13.4 - - 57 0.9 11.0 W | 259 1.6 5.6 WSW | 253 -1.3 39.4 21.0
7/2/24 - 2200 30.1 - - 58 16.9 26.0 W | 261 1.7 8.1 SSW | 209 -1.3 39.4 21.0
7/2/24 - 2100 35.8 - - 58 22.6 31.1 SW | 234 0.8 10.4 NW | 324 -1.3 39.0 21.0
7/2/24 - 2000 24.3 - 17.7 61 12.7 21.1 S | 180 5.4 18.8 S | 179 -1.3 39.0 21.0
7/2/24 - 1900 20.4 - 12.5 62 9.4 17.7 S | 188 6.0 17.2 S | 187 -1.3 39.0 21.0
7/2/24 - 1800 16.2 - 7.8 63 5.8 13.9 S | 191 5.7 17.4 S | 176 -1.3 39.0 21.0
7/2/24 - 1700 11.5 - 0.4 63 1.4 9.6 S | 187 7.4 21.0 SSW | 198 -1.3 39.0 21.0
7/2/24 - 1600 9.0 - -1.5 64 -0.8 7.4 SSW | 195 6.3 18.1 SSW | 201 -1.3 39.0 18.1
7/2/24 - 1500 5.7 - -3.8 64 -3.8 4.4 SSW | 199 5.0 18.0 S | 178 -1.3 39.0 18.0
7/2/24 - 1400 2.2 - -5.5 64 -7.2 1.2 SW | 214 3.5 15.2 S | 190 -1.3 39.0 15.2
7/2/24 - 1300 0.8 - - 63 -8.8 -0.0 ESE | 104 2.4 11.8 NW | 316 -1.3 39.0 11.8
7/2/24 - 1200 2.1 - - 62 -8.1 1.1 SE | 133 2.0 8.1 NW | 322 -0.5 39.0 8.1
7/2/24 - 1100 2.7 - - 60 -8.1 1.5 NE | 40 1.5 7.3 SSE | 162 0.7 39.0 7.3
7/2/24 - 1000 2.7 - - 58 -8.7 1.5 NNE | 28 1.4 7.2 N | 1 0.9 39.0 7.2
7/2/24 - 0900 3.8 - - 57 -8.1 2.4 NNE | 16 1.2 6.4 NW | 322 1.0 39.0 6.4
7/2/24 - 0800 19.3 - - 55 5.8 16.1 NE | 44 0.2 2.8 ENE | 57 5.8 39.0 5.7
7/2/24 - 0700 36.5 - - 50 19.9 30.8 N | 354 0.1 2.3 N | 349 20.9 39.0 5.7
7/2/24 - 0600 28.5 - - 50 12.3 23.9 SSW | 213 0.4 4.0 WSW | 242 20.9 35.5 5.7
7/2/24 - 0500 24.6 - - 51 9.1 20.6 W | 261 1.7 5.7 W | 272 21.4 31.8 5.7
7/2/24 - 0400 28.1 - - 51 12.2 23.6 SW | 229 0.4 3.5 S | 188 25.1 31.8 4.9
7/2/24 - 0300 29.4 - - 51 13.5 24.7 SSW | 204 0.4 3.9 SSW | 192 26.1 31.8 4.9
7/2/24 - 0200 28.2 - - 52 12.8 23.8 WSW | 244 0.5 4.9 S | 178 26.1 31.8 4.9
7/2/24 - 0100 21.3 - - 53 7.0 17.8 SW | 219 1.5 5.3 SSW | 208 -20.7 42.9 21.6
7/2/24 - 0000 13.4 - - 55 0.4 10.9 WNW | 297 0.5 7.5 WNW | 291 -20.7 42.9 21.6
7/1/24 - 2300 17.0 - - 56 4.2 14.2 WNW | 292 0.9 7.4 W | 275 -20.7 42.9 21.6
7/1/24 - 2200 24.6 - - 57 11.6 21.1 W | 279 1.3 14.3 NNW | 342 -20.7 42.9 21.6
7/1/24 - 2100 36.3 - - 58 22.8 31.5 W | 273 1.2 7.7 NNW | 335 -20.7 42.9 21.6
7/1/24 - 2000 33.5 - - 60 21.0 29.2 NW | 311 1.0 6.2 NNW | 328 -20.7 37.8 21.6
7/1/24 - 1900 24.5 - - 61 13.2 21.4 SSE | 157 0.9 8.3 SSE | 150 -20.7 28.7 21.6
7/1/24 - 1800 16.1 - - 62 5.5 13.8 S | 187 1.9 9.7 S | 180 -20.7 18.7 21.6
7/1/24 - 1700 8.4 - -1.3 62 -1.9 6.8 S | 187 5.5 21.4 S | 175 -20.7 17.8 21.6
7/1/24 - 1600 -0.4 - -14.8 62 -10.4 -1.2 S | 181 8.2 21.6 S | 188 -20.7 17.8 21.6
7/1/24 - 1500 -4.2 - -19.4 62 -14.0 -4.7 S | 189 8.2 20.4 S | 185 -20.7 17.8 20.4
7/1/24 - 1400 -7.2 - -19.4 62 -16.8 -7.4 SSW | 198 5.2 15.3 SSW | 197 -20.7 17.8 15.3
7/1/24 - 1300 -0.8 - -9.7 62 -10.7 -1.6 S | 181 3.9 13.5 SSW | 203 -20.7 17.8 13.5
7/1/24 - 1200 - - - 51 - - E | 92 1.7 7.4 NNE | 23 -0.5 17.8 7.4
7/1/24 - 1100 27.2 - - 66 17.0 24.2 SSE | 154 0.7 1.3 SSE | 165 0.0 32.0 1.3
7/1/24 - 1000 32.9 - 18.8 42 6.3 45.2 E | 83 30.3 31.0 E | 82 -47.3 - 37.2
7/1/24 - 0900 -17.3 - - 100 -17.2 -12.5 E | 80 33.5 33.7 E | 80 -42.5 -30.8 52.1
7/1/24 - 0800 -40.8 - - 44 -61.6 -40.1 ENE | 77 40.0 48.8 ENE | 74 -42.5 -30.8 52.1
7/1/24 - 0700 -41.9 - - 60 -54.9 -39.5 ENE | 72 50.6 52.0 ENE | 71 -42.5 -30.8 52.1
7/1/24 - 0600 -39.9 - - 94 -41.6 -33.8 ENE | 71 49.6 52.1 ENE | 70 -42.5 -30.8 52.1
7/1/24 - 0500 -38.6 - - 95 -40.3 -32.8 ENE | 72 49.4 50.9 ENE | 71 -42.5 -30.8 50.9
7/1/24 - 0400 -40.9 - - 94 -43.0 -34.8 ENE | 73 47.0 50.2 ENE | 71 -42.5 -30.8 50.2
7/1/24 - 0300 -38.5 - - 98 -39.2 -32.3 ENE | 74 44.4 46.1 ENE | 74 -42.5 -30.8 46.1
7/1/24 - 0200 -40.6 - - 93 -42.5 -34.6 ENE | 74 43.1 45.0 ENE | 73 -42.5 -33.7 45.0
7/1/24 - 0100 -40.2 - - 96 -41.2 -33.9 ENE | 75 40.1 42.2 ENE | 75 -42.6 0.8 42.2
7/1/24 - 0000 -37.6 - - 97 -38.6 -31.7 ENE | 77 36.9 39.2 ENE | 76 -42.6 0.8 39.5
6/30/24 - 2300 -36.5 - - 98 -37.4 -30.7 ENE | 77 37.9 39.5 ENE | 76 -42.6 0.8 39.5
6/30/24 - 2200 -38.0 - - 86 -43.5 -33.1 E | 80 30.9 37.1 ENE | 78 -42.6 0.8 37.1
6/30/24 - 2100 -37.8 - - 94 -39.4 -32.1 E | 80 31.6 34.4 E | 79 -42.6 0.8 34.4
6/30/24 - 2000 -32.7 - - 93 -36.0 -28.1 E | 81 30.1 32.3 E | 80 -42.6 0.8 32.3
6/30/24 - 1900 -37.1 - - 98 -37.7 -31.2 E | 83 26.0 27.9 E | 82 -42.5 0.8 31.9
6/30/24 - 1800 -32.4 - - 97 -33.5 -27.5 E | 84 23.6 25.5 E | 84 -42.5 0.8 31.9
6/30/24 - 1700 -29.9 - - 98 -30.4 -25.2 E | 85 20.8 23.0 E | 85 -42.5 0.8 31.9
6/25/24 - 1400 -30.7 - - 97 -31.4 -25.9 E | 90 29.6 30.2 E | 91 -41.9 3.5 37.2
6/24/24 - 1000 61.4 - - 42 20.7 54.6 E | 86 33.4 33.8 E | 86 -41.9 - 37.2
6/24/24 - 0800 -32.3 - - 92 -34.1 -27.8 NE | 45 22.1 25.9 NE | 46 -41.9 3.5 26.2
6/24/24 - 0700 -33.3 - - 96 -34.6 -28.3 NE | 45 23.6 26.0 NE | 47 -41.9 3.5 26.2
6/24/24 - 0600 -32.0 - - 99 -32.3 -26.9 NE | 44 23.0 24.9 NE | 46 -41.9 3.5 26.2
6/24/24 - 0500 -35.0 - - 96 -36.0 -29.6 NE | 44 22.8 26.2 NE | 45 -41.9 3.5 26.2
6/24/24 - 0400 -25.5 - - 99 -25.8 -21.5 NE | 43 22.7 24.4 NE | 45 -41.9 3.5 24.4
6/24/24 - 0300 -26.1 - - 99 -26.5 -22.0 NE | 42 22.4 24.3 NE | 45 -41.9 3.5 24.3
6/24/24 - 0200 -24.3 - - 99 -24.7 -20.5 NE | 41 20.9 22.8 NE | 43 -41.9 2.3 22.8
6/24/24 - 0100 -32.9 - - 97 -33.9 -27.9 NE | 40 20.6 23.0 NE | 40 -42.1 23.0 -
6/24/24 - 0000 -24.9 - - 99 -25.2 -21.0 NE | 38 19.5 21.6 NE | 41 -42.1 23.0 -
6/23/24 - 2300 -29.6 - - 97 -30.5 -25.1 NE | 36 18.6 20.5 NE | 37 -42.1 23.0 -
6/23/24 - 2200 -34.1 - - 95 -35.5 -29.1 NE | 35 17.6 20.3 NE | 37 -42.1 23.0 -
6/23/24 - 2100 -30.0 - - 99 -30.2 -25.2 NE | 36 17.3 19.5 NE | 37 -42.1 23.0 -
6/23/24 - 2000 -28.9 - - 95 -30.4 -24.6 NE | 36 16.8 19.2 NE | 36 -42.1 23.0 -
6/23/24 - 1900 -25.6 - - 96 -26.9 -21.9 NE | 36 16.7 18.7 NE | 38 -42.1 23.0 -
6/23/24 - 1800 -24.8 - - 96 -26.2 -21.2 NE | 36 17.3 19.8 NE | 37 -42.0 23.0 -
6/23/24 - 1700 -27.6 - - 86 -32.9 -24.3 NE | 37 18.2 21.3 NE | 40 -42.0 23.0 -
6/23/24 - 1600 -30.3 - - 82 -37.2 -26.9 NE | 38 18.7 22.9 NE | 40 -42.0 23.0 -
6/23/24 - 1500 -27.3 - - 92 -29.6 -23.5 N | 0 - - - -42.0 23.0 -
6/23/24 - 1300 10.5 - - 3 -55.6 5.7 N | 0 - - - 1.2 23.0 -
6/23/24 - 1200 14.5 - - 3 -52.7 9.0 N | 0 - - - 1.2 23.0 -
6/23/24 - 1100 18.4 - - 3 -50.0 12.0 N | 0 - - - 1.2 23.0 -
6/23/24 - 1000 21.2 - - 3 -48.0 14.1 N | 0 - - - 1.2 23.0 -
6/23/24 - 0900 22.4 - - 3 -47.2 15.0 N | 0 - - - 1.2 23.0 -
6/23/24 - 0800 21.7 - - 3 -47.7 14.5 N | 0 - - - 1.2 22.4 -
6/23/24 - 0700 19.1 - - 3 -49.5 12.5 N | 0 - - - 1.2 20.6 -
6/23/24 - 0600 16.5 - - 3 -51.3 10.5 N | 0 - - - 1.2 17.6 -
6/23/24 - 0500 14.0 - - 3 -53.1 8.5 N | 0 - - - 1.2 15.3 -
6/23/24 - 0400 10.7 - - 3 -55.4 5.8 N | 0 - - - 1.2 12.5 -
6/23/24 - 0300 6.9 - - 3 -58.1 2.7 N | 0 - - - 1.2 8.6 -
6/23/24 - 0200 3.4 - - 3 -60.6 -0.3 N | 0 - - - 1.2 5.2 -
6/23/24 - 0100 -1.2 - - 3 -63.9 -4.4 N | 0 - - - -12.5 35.8 -
6/23/24 - 0000 -5.8 - - 3 -67.1 -8.5 N | 0 - - - -12.5 35.8 -
6/22/24 - 2300 -9.0 - - 3 -69.5 -11.5 N | 0 - - - -12.5 35.8 -
6/22/24 - 2200 -10.8 - - 3 -70.7 -13.2 N | 0 - - - -12.5 35.8 -
6/22/24 - 2100 -12.0 - - 3 -71.6 -14.4 N | 0 - - - -12.5 35.8 -
6/22/24 - 2000 -12.2 - - 3 -71.8 -14.6 N | 0 - - - -12.5 35.8 -
6/22/24 - 1900 -10.8 - - 3 -70.7 -13.2 N | 0 - - - -11.7 35.8 -
6/22/24 - 1800 -7.7 - - 3 -68.5 -10.3 N | 0 - - - -9.5 35.8 -
6/22/24 - 1700 -3.2 - - 3 -65.3 -6.2 N | 0 - - - -5.6 35.8 -
6/22/24 - 1600 2.5 - - 3 -61.2 -1.1 N | 0 - - - -0.6 35.8 -
6/22/24 - 1500 8.2 - - 3 -57.2 3.8 N | 0 - - - 5.2 35.8 -
6/22/24 - 1400 14.2 - - 3 -52.9 8.7 N | 0 - - - 6.4 35.8 -
6/22/24 - 1300 20.2 - - 3 -48.7 13.4 N | 0 - - - 6.4 35.8 -
6/22/24 - 1200 25.8 - - 3 -44.8 17.5 N | 0 - - - 6.4 35.8 -
6/22/24 - 1100 30.4 - - 3 -41.6 20.7 N | 0 - - - 6.4 35.8 -
6/22/24 - 1000 33.9 - - 3 -39.2 23.1 N | 0 - - - 6.4 35.8 -
6/22/24 - 0900 35.3 - - 3 -38.2 24.1 N | 0 - - - 6.4 35.8 -
6/22/24 - 0800 35.2 - - 3 -38.3 24.0 N | 0 - - - 6.4 35.6 -
6/22/24 - 0700 33.8 - - 3 -39.2 23.1 N | 0 - - - 6.4 35.4 -
6/22/24 - 0600 29.5 - - 3 -42.2 20.1 N | 0 - - - 6.4 32.0 -
6/22/24 - 0500 24.3 - - 3 -45.8 16.4 N | 0 - - - 6.4 26.8 -
6/22/24 - 0400 19.4 - - 3 -49.3 12.7 N | 0 - - - 6.4 21.8 -
6/22/24 - 0300 14.4 - - 3 -52.8 8.9 N | 0 - - - 6.4 16.8 -
6/22/24 - 0200 9.0 - - 3 -56.6 4.5 N | 0 - - - 6.4 11.7 -
6/22/24 - 0100 4.3 - - 3 -60.0 0.5 N | 0 - - - -6.1 61.7 -
6/22/24 - 0000 0.2 - - 3 -62.8 -3.1 N | 0 - - - -6.1 61.7 -
6/21/24 - 2300 -3.0 - - 3 -65.2 -6.0 N | 0 - - - -6.1 61.7 -
6/21/24 - 2200 -5.5 - - 3 -67.0 -8.3 N | 0 - - - -6.1 61.7 -
6/21/24 - 2100 -5.8 - - 3 -67.2 -8.5 N | 0 - - - -6.1 61.7 -
6/21/24 - 2000 -4.4 - - 3 -66.1 -7.2 N | 0 - - - -5.5 61.7 -
6/21/24 - 1900 -1.0 - - 3 -63.7 -4.2 N | 0 - - - -3.2 61.7 -
6/21/24 - 1800 3.5 - - 3 -60.5 -0.2 N | 0 - - - 1.5 61.7 -
6/21/24 - 1700 10.0 - - 3 -55.9 5.3 N | 0 - - - 6.0 61.7 -
6/21/24 - 1600 17.6 - - 3 -50.6 11.3 N | 0 - - - 13.8 61.7 -
6/21/24 - 1500 25.8 - - 3 -44.8 17.5 N | 0 - - - 21.6 61.7 -
6/21/24 - 1400 33.5 - - 3 -39.4 22.9 N | 0 - - - 27.9 61.7 -
6/21/24 - 1300 41.5 - - 3 -33.9 28.1 N | 0 - - - 27.9 61.7 -
6/21/24 - 1200 49.1 - - 3 -28.7 32.6 N | 0 - - - 27.9 61.7 -
6/21/24 - 1100 56.7 - - 3 -23.5 36.8 N | 0 - - - 27.9 61.7 -
6/21/24 - 1000 61.0 - - 3 -20.5 39.1 N | 0 - - - 27.9 61.7 -
6/21/24 - 0900 59.6 - - 3 -21.4 38.4 N | 0 - - - 27.9 61.0 -
6/21/24 - 0800 55.2 - - 3 -24.5 36.0 N | 0 - - - 27.9 57.0 -
6/21/24 - 0700 52.2 - - 3 -26.5 34.4 N | 0 - - - 27.9 53.6 -
6/21/24 - 0600 47.9 - - 3 -29.5 32.0 N | 0 - - - 27.9 50.3 -
6/21/24 - 0500 43.3 - - 3 -32.7 29.2 N | 0 - - - 27.9 46.0 -
6/21/24 - 0400 39.0 - - 3 -35.6 26.5 N | 0 - - - 27.9 41.0 -
6/21/24 - 0300 34.8 - - 3 -38.6 23.8 N | 0 - - - 27.9 37.2 -
6/21/24 - 0200 30.2 - - 3 -41.8 20.6 N | 0 - - - 27.9 32.4 -
6/21/24 - 0100 25.7 - - 3 -44.9 17.4 N | 0 - - - 16.6 73.4 -
6/21/24 - 0000 21.8 - - 3 -47.6 14.6 N | 0 - - - 16.6 73.4 -
6/20/24 - 2300 18.9 - - 3 -49.7 12.3 N | 0 - - - 16.6 73.4 -
6/20/24 - 2200 17.1 - - 3 -50.9 11.0 N | 0 - - - 16.6 73.4 -
6/20/24 - 2100 16.9 - - 3 -51.0 10.8 N | 0 - - - 16.6 73.4 -
6/20/24 - 2000 18.0 - - 3 -50.3 11.7 N | 0 - - - 17.2 73.4 -
6/20/24 - 1900 21.8 - - 3 -47.6 14.6 N | 0 - - - 19.3 73.4 -
6/20/24 - 1800 26.8 - - 3 -44.1 18.2 N | 0 - - - 24.7 73.4 -
6/20/24 - 1700 32.1 - - 3 -40.4 21.9 N | 0 - - - 29.2 73.4 -
6/20/24 - 1600 38.4 - - 3 -36.0 26.1 N | 0 - - - 35.0 73.4 -
6/20/24 - 1500 44.5 - - 3 -31.8 29.9 N | 0 - - - 41.4 73.4 -
6/20/24 - 1400 50.8 - - 3 -27.5 33.6 N | 0 - - - 43.4 73.4 -
6/20/24 - 1300 57.1 - - 3 -23.2 37.0 N | 0 - - - 43.4 73.4 -
6/20/24 - 1200 63.2 - - 3 -19.0 40.1 N | 0 - - - 43.4 73.4 -
6/20/24 - 1100 67.9 - - 3 -13.5 42.5 N | 0 - - - 43.4 73.4 -
6/20/24 - 1000 71.7 - - 4 -6.6 44.4 N | 0 - - - 43.4 73.4 -
6/20/24 - 0900 72.8 - - 4 -4.6 45.0 N | 0 - - - 43.4 73.4 -
6/20/24 - 0800 71.6 - - 4 -6.9 44.4 N | 0 - - - 43.4 72.3 -
6/20/24 - 0700 68.9 - - 4 -11.4 43.0 N | 0 - - - 43.4 70.2 -
6/20/24 - 0600 65.0 - - 3 -17.6 41.0 N | 0 - - - 43.4 67.1 -
6/20/24 - 0500 60.9 - - 3 -20.6 39.0 N | 0 - - - 43.4 63.4 -
6/20/24 - 0400 56.1 - - 3 -23.9 36.5 N | 0 - - - 43.4 58.5 -
6/20/24 - 0300 50.9 - - 3 -27.4 33.7 N | 0 - - - 43.4 53.4 -
6/20/24 - 0200 46.0 - - 3 -30.8 30.8 N | 0 - - - 43.4 48.4 -
6/20/24 - 0100 41.2 - - 3 -34.1 27.9 N | 0 - - - 31.2 86.4 -
6/20/24 - 0000 36.9 - - 3 -37.1 25.2 N | 0 - - - 31.2 86.4 -
6/19/24 - 2300 33.6 - - 3 -39.4 22.9 N | 0 - - - 31.2 86.4 -
6/19/24 - 2200 31.6 - - 3 -40.8 21.6 N | 0 - - - 31.2 86.4 -
6/19/24 - 2100 31.6 - - 3 -40.8 21.6 N | 0 - - - 31.3 86.4 -
6/19/24 - 2000 34.1 - - 3 -39.0 23.3 N | 0 - - - 31.9 86.4 -
6/19/24 - 1900 37.8 - - 3 -36.5 25.7 N | 0 - - - 35.9 86.4 -
6/19/24 - 1800 41.7 - - 3 -33.8 28.2 N | 0 - - - 39.6 86.4 -
6/19/24 - 1700 46.8 - - 3 -30.3 31.3 N | 0 - - - 44.0 86.4 -
6/19/24 - 1600 52.6 - - 3 -26.2 34.6 N | 0 - - - 49.6 86.4 -
6/19/24 - 1500 57.9 - - 3 -22.6 37.5 N | 0 - - - 55.0 86.4 -
6/19/24 - 1400 63.7 - - 3 -18.6 40.4 N | 0 - - - 60.6 86.4 -
6/19/24 - 1300 69.6 - - 4 -10.1 43.4 N | 0 - - - 62.4 86.4 -
6/19/24 - 1200 75.7 - - 5 0.4 46.5 N | 0 - - - 62.4 86.4 -
6/19/24 - 1100 80.7 - - 6 8.6 49.1 N | 0 - - - 62.4 86.4 -
6/19/24 - 1000 84.6 - - 7 15.0 51.1 N | 0 - - - 62.4 86.4 -
6/19/24 - 0900 86.0 - - 8 17.0 51.8 N | 0 - - - 62.4 86.4 -
6/19/24 - 0800 85.1 - - 7 15.6 51.4 N | 0 - - - 62.4 86.1 -
6/19/24 - 0700 82.7 - - 7 11.8 50.1 N | 0 - - - 62.4 84.2 -
6/19/24 - 0600 78.9 - - 6 5.5 48.1 N | 0 - - - 62.4 80.9 -
6/19/24 - 0500 74.6 - - 5 -1.5 46.0 N | 0 - - - 62.4 76.5 -
6/19/24 - 0400 70.9 - - 4 -8.0 44.0 N | 0 - - - 62.4 72.7 -
6/19/24 - 0300 67.3 - - 3 -14.6 42.1 N | 0 - - - 62.4 68.9 -
6/19/24 - 0200 64.0 - - 3 -18.5 40.5 N | 0 - - - 62.4 65.6 -
6/19/24 - 0100 59.9 - - 3 -21.3 38.5 N | 0 - - - -41.9 - -
6/19/24 - 0000 56.2 - - 3 -23.8 36.5 N | 0 - - - -41.9 - -
6/18/24 - 2300 54.0 - - 3 -25.3 35.4 N | 0 - - - -41.9 - -
6/18/24 - 2200 52.3 - - 3 -26.5 34.4 N | 0 - - - -41.9 - -
6/18/24 - 2100 50.5 - - 3 -27.7 33.4 N | 0